createdAt,value
2023-04-26T00:00:26.822Z,18.63
2023-04-26T00:02:53.316Z,17.77
2023-04-26T00:05:20.263Z,16.70
2023-04-26T00:07:46.737Z,17.98
2023-04-26T00:10:13.118Z,16.65
2023-04-26T00:12:39.564Z,16.43
2023-04-26T00:15:06.235Z,18.48
2023-04-26T00:17:32.706Z,21.65
2023-04-26T00:19:59.227Z,17.15
2023-04-26T00:22:25.599Z,16.80
2023-04-26T00:24:51.960Z,16.80
2023-04-26T00:27:18.423Z,13.35
2023-04-26T00:29:44.817Z,16.20
2023-04-26T00:32:11.190Z,15.90
2023-04-26T00:34:38.897Z,14.43
2023-04-26T00:37:05.857Z,12.83
2023-04-26T00:39:32.379Z,14.55
2023-04-26T00:41:58.869Z,14.90
2023-04-26T00:44:25.230Z,12.23
2023-04-26T00:46:52.704Z,10.70
2023-04-26T00:49:20.939Z,11.00
2023-04-26T00:51:48.018Z,13.02
2023-04-26T00:54:15.410Z,10.02
2023-04-26T00:56:42.481Z,12.18
2023-04-26T00:59:08.815Z,12.98
2023-04-26T01:01:35.662Z,10.57
2023-04-26T01:04:02.755Z,13.55
2023-04-26T01:06:33.896Z,11.35
2023-04-26T01:09:01.984Z,10.95
2023-04-26T01:11:29.009Z,11.68
2023-04-26T01:13:56.255Z,10.50
2023-04-26T01:16:23.049Z,14.45
2023-04-26T01:18:53.152Z,14.93
2023-04-26T01:21:20.897Z,12.68
2023-04-26T01:23:47.489Z,12.65
2023-04-26T01:26:13.884Z,13.57
2023-04-26T01:28:40.226Z,13.48
2023-04-26T01:31:07.019Z,12.30
2023-04-26T01:33:33.570Z,13.35
2023-04-26T01:35:59.941Z,13.85
2023-04-26T01:38:26.297Z,13.53
2023-04-26T01:40:53.036Z,14.35
2023-04-26T01:43:19.537Z,14.52
2023-04-26T01:45:48.934Z,13.45
2023-04-26T01:48:16.921Z,13.02
2023-04-26T01:50:43.295Z,11.77
2023-04-26T01:53:09.657Z,9.40
2023-04-26T01:55:36.104Z,11.25
2023-04-26T01:58:02.468Z,13.48
2023-04-26T02:00:29.467Z,10.77
2023-04-26T02:02:56.848Z,12.37
2023-04-26T02:05:23.526Z,10.15
2023-04-26T02:07:50.720Z,11.80
2023-04-26T02:10:17.565Z,10.63
2023-04-26T02:12:44.102Z,11.48
2023-04-26T02:15:11.105Z,12.90
2023-04-26T02:17:38.578Z,12.15
2023-04-26T02:20:05.475Z,12.50
2023-04-26T02:22:31.979Z,13.80
2023-04-26T02:24:58.381Z,13.73
2023-04-26T02:27:24.923Z,12.90
2023-04-26T02:29:51.289Z,14.52
2023-04-26T02:32:17.882Z,14.02
2023-04-26T02:34:44.575Z,11.57
2023-04-26T02:37:11.091Z,13.15
2023-04-26T02:39:37.479Z,10.57
2023-04-26T02:42:03.850Z,14.77
2023-04-26T02:44:30.611Z,12.40
2023-04-26T02:46:57.823Z,13.77
2023-04-26T02:49:24.304Z,12.02
2023-04-26T02:51:50.744Z,12.97
2023-04-26T02:54:17.281Z,11.70
2023-04-26T02:56:43.805Z,11.00
2023-04-26T02:59:10.257Z,12.73
2023-04-26T03:01:36.867Z,13.70
2023-04-26T03:04:03.442Z,13.07
2023-04-26T03:06:29.904Z,24.55
2023-04-26T03:08:56.529Z,14.20
2023-04-26T03:11:22.884Z,18.08
2023-04-26T03:13:49.258Z,15.95
2023-04-26T03:16:15.734Z,13.50
2023-04-26T03:18:42.128Z,13.85
2023-04-26T03:21:08.524Z,15.55
2023-04-26T03:23:35.101Z,14.88
2023-04-26T03:26:01.589Z,14.60
2023-04-26T03:28:28.064Z,14.13
2023-04-26T03:30:54.619Z,15.07
2023-04-26T03:33:21.104Z,14.68
2023-04-26T03:35:47.568Z,13.80
2023-04-26T03:38:14.100Z,14.00
2023-04-26T03:40:40.588Z,13.83
2023-04-26T03:43:06.949Z,14.63
2023-04-26T03:45:33.464Z,14.35
2023-04-26T03:48:00.049Z,13.13
2023-04-26T03:50:26.470Z,13.00
2023-04-26T03:52:52.932Z,14.63
2023-04-26T03:55:19.780Z,14.85
2023-04-26T03:57:46.417Z,12.43
2023-04-26T04:00:13.181Z,13.90
2023-04-26T04:02:40.092Z,9.85
2023-04-26T04:05:06.838Z,13.00
2023-04-26T04:07:33.400Z,14.32
2023-04-26T04:09:59.768Z,12.07
2023-04-26T04:12:26.165Z,12.02
2023-04-26T04:14:52.786Z,11.07
2023-04-26T04:17:19.183Z,12.60
2023-04-26T04:19:45.548Z,9.00
2023-04-26T04:22:11.927Z,9.65
2023-04-26T04:24:38.269Z,11.80
2023-04-26T04:27:04.634Z,9.68
2023-04-26T04:29:31.097Z,8.57
2023-04-26T04:31:57.443Z,9.20
2023-04-26T04:34:23.797Z,12.20
2023-04-26T04:36:50.268Z,9.93
2023-04-26T04:39:16.781Z,13.30
2023-04-26T04:41:43.658Z,12.40
2023-04-26T04:44:10.104Z,13.18
2023-04-26T04:46:36.503Z,9.60
2023-04-26T04:49:02.914Z,14.23
2023-04-26T04:51:29.327Z,13.00
2023-04-26T04:53:57.273Z,13.17
2023-04-26T04:56:23.781Z,13.82
2023-04-26T04:58:50.484Z,14.27
2023-04-26T05:01:17.017Z,14.27
2023-04-26T05:03:43.574Z,14.45
2023-04-26T05:06:10.460Z,15.53
2023-04-26T05:08:36.808Z,15.93
2023-04-26T05:11:03.164Z,13.38
2023-04-26T05:13:29.568Z,13.18
2023-04-26T05:15:55.966Z,14.55
2023-04-26T05:18:22.328Z,15.63
2023-04-26T05:20:48.767Z,11.57
2023-04-26T05:23:15.124Z,11.25
2023-04-26T05:25:41.461Z,11.43
2023-04-26T05:28:07.852Z,12.70
2023-04-26T05:30:34.245Z,13.13
2023-04-26T05:33:00.707Z,11.70
2023-04-26T05:35:27.274Z,12.98
2023-04-26T05:37:53.768Z,13.02
2023-04-26T05:40:20.218Z,11.63
2023-04-26T05:42:46.749Z,11.67
2023-04-26T05:45:13.217Z,11.65
2023-04-26T05:47:39.678Z,12.27
2023-04-26T05:50:07.019Z,11.68
2023-04-26T05:52:33.600Z,11.95
2023-04-26T05:55:00.225Z,10.83
2023-04-26T05:57:26.846Z,13.65
2023-04-26T05:59:53.416Z,12.27
2023-04-26T06:02:19.974Z,12.05
2023-04-26T06:04:46.960Z,11.40
2023-04-26T06:07:13.583Z,9.10
2023-04-26T06:09:39.957Z,10.77
2023-04-26T06:12:06.568Z,11.43
2023-04-26T06:14:33.316Z,9.20
2023-04-26T06:16:59.785Z,8.77
2023-04-26T06:19:26.463Z,9.63
2023-04-26T06:21:52.800Z,8.18
2023-04-26T06:24:19.157Z,10.45
2023-04-26T06:26:45.694Z,12.25
2023-04-26T06:29:12.184Z,10.48
2023-04-26T06:31:38.544Z,9.13
2023-04-26T06:34:04.944Z,11.02
2023-04-26T06:36:31.314Z,10.82
2023-04-26T06:38:57.811Z,10.30
2023-04-26T06:41:24.450Z,8.68
2023-04-26T06:43:51.169Z,11.03
2023-04-26T06:46:17.966Z,7.50
2023-04-26T06:48:44.769Z,11.80
2023-04-26T06:51:11.401Z,10.68
2023-04-26T06:53:37.767Z,7.50
2023-04-26T06:56:04.669Z,8.40
2023-04-26T06:58:31.031Z,9.60
2023-04-26T07:00:57.601Z,9.05
2023-04-26T07:03:24.321Z,8.60
2023-04-26T07:05:51.034Z,11.15
2023-04-26T07:08:17.536Z,9.27
2023-04-26T07:10:44.085Z,9.27
2023-04-26T07:13:10.452Z,9.00
2023-04-26T07:15:36.959Z,10.80
2023-04-26T07:18:03.402Z,10.20
2023-04-26T07:20:29.792Z,7.40
2023-04-26T07:22:56.173Z,6.45
2023-04-26T07:25:22.964Z,8.60
2023-04-26T07:27:49.445Z,6.22
2023-04-26T07:30:15.917Z,7.05
2023-04-26T07:32:42.530Z,7.73
2023-04-26T07:35:10.564Z,7.30
2023-04-26T07:37:37.084Z,7.57
2023-04-26T07:40:03.997Z,7.60
2023-04-26T07:42:30.494Z,7.40
2023-04-26T07:44:57.046Z,7.83
2023-04-26T07:47:23.663Z,7.15
2023-04-26T07:49:53.573Z,6.90
2023-04-26T07:52:20.073Z,5.72
2023-04-26T07:54:47.708Z,7.13
2023-04-26T07:57:14.484Z,7.87
2023-04-26T07:59:40.987Z,9.55
2023-04-26T08:02:07.683Z,7.70
2023-04-26T08:04:34.564Z,8.02
2023-04-26T08:07:01.431Z,6.28
2023-04-26T08:09:29.274Z,8.53
2023-04-26T08:11:55.876Z,7.15
2023-04-26T08:14:22.392Z,7.90
2023-04-26T08:16:48.997Z,8.05
2023-04-26T08:19:15.546Z,7.57
2023-04-26T08:21:42.157Z,8.63
2023-04-26T08:24:08.808Z,7.63
2023-04-26T08:26:35.305Z,7.03
2023-04-26T08:29:01.801Z,6.68
2023-04-26T08:31:28.403Z,7.15
2023-04-26T08:33:55.034Z,7.63
2023-04-26T08:36:21.654Z,8.90
2023-04-26T08:38:48.168Z,7.90
2023-04-26T08:41:20.917Z,6.60
2023-04-26T08:43:48.703Z,8.25
2023-04-26T08:46:18.977Z,6.93
2023-04-26T08:48:54.688Z,7.25
2023-04-26T08:51:22.435Z,7.68
2023-04-26T08:53:51.876Z,5.78
2023-04-26T08:56:18.646Z,7.50
2023-04-26T08:58:45.249Z,6.17
2023-04-26T09:01:15.025Z,6.97
2023-04-26T09:03:41.724Z,7.65
2023-04-26T09:06:09.029Z,7.10
2023-04-26T09:08:40.377Z,7.00
2023-04-26T09:11:06.912Z,7.13
2023-04-26T09:13:33.529Z,6.55
2023-04-26T09:16:03.401Z,7.22
2023-04-26T09:18:31.157Z,6.40
2023-04-26T09:21:09.113Z,9.57
2023-04-26T09:23:35.968Z,9.87
2023-04-26T09:26:18.425Z,5.60
2023-04-26T09:28:44.881Z,6.07
2023-04-26T09:31:11.387Z,6.50
2023-04-26T09:33:57.909Z,7.20
2023-04-26T09:36:24.436Z,5.63
2023-04-26T09:38:51.173Z,9.63
2023-04-26T09:41:18.098Z,7.38
2023-04-26T09:43:44.621Z,7.15
2023-04-26T09:46:11.114Z,7.40
2023-04-26T09:48:38.122Z,7.37
2023-04-26T09:51:04.565Z,8.52
2023-04-26T09:53:39.008Z,5.97
2023-04-26T09:56:08.456Z,6.30
2023-04-26T09:58:37.242Z,8.48
2023-04-26T10:01:04.411Z,6.70
2023-04-26T10:03:31.611Z,6.78
2023-04-26T10:05:58.702Z,7.03
2023-04-26T10:08:26.048Z,6.25
2023-04-26T10:10:53.110Z,8.15
2023-04-26T10:13:19.745Z,9.30
2023-04-26T10:15:47.681Z,8.32
2023-04-26T10:18:14.206Z,10.45
2023-04-26T10:20:43.357Z,7.72
2023-04-26T10:23:20.300Z,7.78
2023-04-26T10:25:48.049Z,6.80
2023-04-26T10:28:14.595Z,9.38
2023-04-26T10:31:00.399Z,9.98
2023-04-26T10:33:27.255Z,9.20
2023-04-26T10:36:10.286Z,7.47
2023-04-26T10:39:01.100Z,5.27
2023-04-26T10:41:35.294Z,7.75
2023-04-26T10:44:37.660Z,8.60
2023-04-26T10:47:06.230Z,8.82
2023-04-26T10:49:44.589Z,7.07
2023-04-26T10:52:20.958Z,6.67
2023-04-26T10:54:54.898Z,12.10
2023-04-26T10:57:23.226Z,7.90
2023-04-26T11:00:31.735Z,6.72
2023-04-26T11:03:04.379Z,9.38
2023-04-26T11:05:52.792Z,9.87
2023-04-26T11:08:23.980Z,6.90
2023-04-26T11:10:59.247Z,6.22
2023-04-26T11:13:25.808Z,8.30
2023-04-26T11:16:00.169Z,7.97
2023-04-26T11:18:26.734Z,7.33
2023-04-26T11:20:53.319Z,7.00
2023-04-26T11:23:19.935Z,6.07
2023-04-26T11:25:46.852Z,7.35
2023-04-26T11:28:13.345Z,6.90
2023-04-26T11:30:40.446Z,8.07
2023-04-26T11:33:07.093Z,5.28
2023-04-26T11:35:36.592Z,8.07
2023-04-26T11:38:04.921Z,9.25
2023-04-26T11:40:32.551Z,6.65
2023-04-26T11:43:09.514Z,8.00
2023-04-26T11:45:37.568Z,7.00
2023-04-26T11:48:06.998Z,7.70
2023-04-26T11:50:36.513Z,10.07
2023-04-26T11:53:06.445Z,8.38
2023-04-26T11:55:34.310Z,7.77
2023-04-26T11:58:01.698Z,7.13
2023-04-26T12:00:28.452Z,8.88
2023-04-26T12:02:55.146Z,6.15
2023-04-26T12:05:22.349Z,9.02
2023-04-26T12:07:55.851Z,9.30
2023-04-26T12:10:29.355Z,9.73
2023-04-26T12:12:58.518Z,8.55
2023-04-26T12:15:34.650Z,8.68
2023-04-26T12:18:11.749Z,9.02
2023-04-26T12:20:42.140Z,6.07
2023-04-26T12:23:14.832Z,6.88
2023-04-26T12:25:51.233Z,7.60
2023-04-26T12:28:17.671Z,7.22
2023-04-26T12:30:44.077Z,10.15
2023-04-26T12:33:17.105Z,7.77
2023-04-26T12:35:44.249Z,7.78
2023-04-26T12:38:10.949Z,5.65
2023-04-26T12:40:37.571Z,5.15
2023-04-26T12:43:04.518Z,5.15
2023-04-26T12:45:30.870Z,4.63
2023-04-26T12:47:57.347Z,3.67
2023-04-26T12:50:23.976Z,5.07
2023-04-26T12:52:50.341Z,5.10
2023-04-26T12:55:17.076Z,6.35
2023-04-26T12:57:44.486Z,5.93
2023-04-26T13:00:11.911Z,6.57
2023-04-26T13:02:38.586Z,6.38
2023-04-26T13:05:05.660Z,5.60
2023-04-26T13:07:37.168Z,5.50
2023-04-26T13:10:04.363Z,6.20
2023-04-26T13:12:31.578Z,5.47
2023-04-26T13:14:57.969Z,5.22
2023-04-26T13:17:25.013Z,9.00
2023-04-26T13:19:51.686Z,7.63
2023-04-26T13:22:18.382Z,6.87
2023-04-26T13:24:44.952Z,8.07
2023-04-26T13:27:11.445Z,9.25
2023-04-26T13:29:37.792Z,5.95
2023-04-26T13:32:04.185Z,7.07
2023-04-26T13:34:30.559Z,6.00
2023-04-26T13:36:57.014Z,7.25
2023-04-26T13:39:23.818Z,7.85
2023-04-26T13:41:50.575Z,6.95
2023-04-26T13:44:17.028Z,7.38
2023-04-26T13:46:43.465Z,6.43
2023-04-26T13:49:09.957Z,6.97
2023-04-26T13:51:36.408Z,5.82
2023-04-26T13:54:04.262Z,5.72
2023-04-26T13:56:30.904Z,6.53
2023-04-26T13:58:57.310Z,8.10
2023-04-26T14:01:23.715Z,7.05
2023-04-26T14:03:51.751Z,7.38
2023-04-26T14:06:20.551Z,8.05
2023-04-26T14:08:46.987Z,7.47
2023-04-26T14:11:13.419Z,7.47
2023-04-26T14:13:40.462Z,13.70
2023-04-26T14:16:08.038Z,7.88
2023-04-26T14:18:34.548Z,9.52
2023-04-26T14:21:00.938Z,10.23
2023-04-26T14:23:27.290Z,6.90
2023-04-26T14:25:54.785Z,7.75
2023-04-26T14:28:21.173Z,9.27
2023-04-26T14:30:47.525Z,10.55
2023-04-26T14:33:14.018Z,9.00
2023-04-26T14:35:40.423Z,6.33
2023-04-26T14:38:06.793Z,8.55
2023-04-26T14:40:33.258Z,6.50
2023-04-26T14:42:59.678Z,5.82
2023-04-26T14:45:36.865Z,8.38
2023-04-26T14:48:10.940Z,6.43
2023-04-26T14:50:37.264Z,10.27
2023-04-26T14:53:03.647Z,9.70
2023-04-26T14:55:30.113Z,12.23
2023-04-26T14:57:56.483Z,10.77
2023-04-26T15:00:22.972Z,9.77
2023-04-26T15:02:49.916Z,9.38
2023-04-26T15:05:16.370Z,10.52
2023-04-26T15:07:42.733Z,9.40
2023-04-26T15:10:09.527Z,11.00
2023-04-26T15:12:36.461Z,14.20
2023-04-26T15:15:05.913Z,16.45
2023-04-26T15:17:33.080Z,15.48
2023-04-26T15:20:00.547Z,12.25
2023-04-26T15:22:26.908Z,8.63
2023-04-26T15:24:54.134Z,12.63
2023-04-26T15:27:20.572Z,8.57
2023-04-26T15:29:46.927Z,11.25
2023-04-26T15:32:13.364Z,12.75
2023-04-26T15:34:40.460Z,13.00
2023-04-26T15:37:06.808Z,11.57
2023-04-26T15:39:33.288Z,13.15
2023-04-26T15:41:59.646Z,13.02
2023-04-26T15:44:25.997Z,26.83
2023-04-26T15:46:52.907Z,10.23
2023-04-26T15:49:19.237Z,11.27
2023-04-26T15:51:45.605Z,14.45
2023-04-26T15:54:12.023Z,16.38
2023-04-26T15:56:39.482Z,16.35
2023-04-26T15:59:05.840Z,11.60
2023-04-26T16:01:33.093Z,16.07
2023-04-26T16:03:59.719Z,14.70
2023-04-26T16:06:26.157Z,20.08
2023-04-26T16:08:52.962Z,12.75
2023-04-26T16:11:19.366Z,9.50
2023-04-26T16:13:45.790Z,16.57
2023-04-26T16:16:12.213Z,18.65
2023-04-26T16:18:38.644Z,12.35
2023-04-26T16:21:08.074Z,15.30
2023-04-26T16:23:34.471Z,14.40
2023-04-26T16:26:01.181Z,17.80
2023-04-26T16:28:27.749Z,16.60
2023-04-26T16:30:54.960Z,17.75
2023-04-26T16:33:22.925Z,17.50
2023-04-26T16:35:50.359Z,12.18
2023-04-26T16:38:17.034Z,16.57
2023-04-26T16:40:43.374Z,15.43
2023-04-26T16:43:09.723Z,18.77
2023-04-26T16:45:36.104Z,27.17
2023-04-26T16:48:02.535Z,21.98
2023-04-26T16:50:28.912Z,19.70
2023-04-26T16:52:55.350Z,21.02
2023-04-26T16:55:21.691Z,17.10
2023-04-26T16:57:48.403Z,18.90
2023-04-26T17:00:15.218Z,15.75
2023-04-26T17:02:41.765Z,13.67
2023-04-26T17:05:08.562Z,18.50
2023-04-26T17:07:34.988Z,19.30
2023-04-26T17:10:01.354Z,22.55
2023-04-26T17:12:27.697Z,17.42
2023-04-26T17:14:54.074Z,12.47
2023-04-26T17:17:20.427Z,20.60
2023-04-26T17:19:46.772Z,20.98
2023-04-26T17:22:13.348Z,13.00
2023-04-26T17:24:39.719Z,27.25
2023-04-26T17:27:06.060Z,17.83
2023-04-26T17:29:32.531Z,15.35
2023-04-26T17:31:58.970Z,15.60
2023-04-26T17:34:25.437Z,17.77
2023-04-26T17:36:52.217Z,16.27
2023-04-26T17:39:18.560Z,16.00
2023-04-26T17:41:44.907Z,13.70
2023-04-26T17:44:11.360Z,18.10
2023-04-26T17:46:37.700Z,14.68
2023-04-26T17:49:04.044Z,20.92
2023-04-26T17:51:30.481Z,16.13
2023-04-26T17:53:56.862Z,15.95
2023-04-26T17:56:23.212Z,17.88
2023-04-26T17:58:50.412Z,25.13
2023-04-26T18:01:16.799Z,20.77
2023-04-26T18:03:43.481Z,27.20
2023-04-26T18:06:09.998Z,15.50
2023-04-26T18:08:36.343Z,23.48
2023-04-26T18:11:02.745Z,22.05
2023-04-26T18:13:29.150Z,18.33
2023-04-26T18:15:55.547Z,23.77
2023-04-26T18:18:21.915Z,21.50
2023-04-26T18:20:48.359Z,15.85
2023-04-26T18:23:14.696Z,15.98
2023-04-26T18:25:41.128Z,15.10
2023-04-26T18:28:07.588Z,16.37
2023-04-26T18:30:33.973Z,15.15
2023-04-26T18:33:00.392Z,12.82
2023-04-26T18:35:26.976Z,20.85
2023-04-26T18:37:53.332Z,19.00
2023-04-26T18:40:19.701Z,21.47
2023-04-26T18:42:46.111Z,23.90
2023-04-26T18:45:12.684Z,22.70
2023-04-26T18:47:39.119Z,21.15
2023-04-26T18:50:05.860Z,25.42
2023-04-26T18:52:32.200Z,33.83
2023-04-26T18:54:58.733Z,25.90
2023-04-26T18:57:26.364Z,23.42
2023-04-26T18:59:52.782Z,17.27
2023-04-26T19:02:19.212Z,16.50
2023-04-26T19:04:48.231Z,24.17
2023-04-26T19:07:16.755Z,20.15
2023-04-26T19:09:53.702Z,16.98
2023-04-26T19:12:21.361Z,19.10
2023-04-26T19:14:47.721Z,16.42
2023-04-26T19:17:14.068Z,17.53
2023-04-26T19:19:40.559Z,17.58
2023-04-26T19:22:07.010Z,21.73
2023-04-26T19:24:33.368Z,24.48
2023-04-26T19:26:59.824Z,20.85
2023-04-26T19:29:26.176Z,20.93
2023-04-26T19:31:52.594Z,25.40
2023-04-26T19:34:19.054Z,27.08
2023-04-26T19:36:45.440Z,23.48
2023-04-26T19:39:11.802Z,22.38
2023-04-26T19:41:38.253Z,19.30
2023-04-26T19:44:04.630Z,21.60
2023-04-26T19:46:31.031Z,16.65
2023-04-26T19:48:57.484Z,18.05
2023-04-26T19:51:23.840Z,16.77
2023-04-26T19:53:50.206Z,12.50
2023-04-26T19:56:16.584Z,16.05
2023-04-26T19:58:42.916Z,16.70
2023-04-26T20:01:09.350Z,19.02
2023-04-26T20:03:36.254Z,25.55
2023-04-26T20:06:02.722Z,18.83
2023-04-26T20:08:31.304Z,17.10
2023-04-26T20:11:01.524Z,19.55
2023-04-26T20:13:27.875Z,18.77
2023-04-26T20:15:54.245Z,20.02
2023-04-26T20:18:20.586Z,27.03
2023-04-26T20:20:46.921Z,22.38
2023-04-26T20:23:13.279Z,21.45
2023-04-26T20:25:40.455Z,19.45
2023-04-26T20:28:06.823Z,19.15
2023-04-26T20:30:33.172Z,24.30
2023-04-26T20:32:59.863Z,22.63
2023-04-26T20:35:26.337Z,18.88
2023-04-26T20:37:53.878Z,22.60
2023-04-26T20:40:20.599Z,17.65
2023-04-26T20:42:46.993Z,18.90
2023-04-26T20:45:13.368Z,19.35
2023-04-26T20:47:39.849Z,19.60
2023-04-26T20:50:06.554Z,17.40
2023-04-26T20:52:32.928Z,18.85
2023-04-26T20:54:59.407Z,14.83
2023-04-26T20:57:25.776Z,16.90
2023-04-26T20:59:52.353Z,13.77
2023-04-26T21:02:20.006Z,11.68
2023-04-26T21:04:46.714Z,10.75
2023-04-26T21:07:13.349Z,12.17
2023-04-26T21:09:40.696Z,11.32
2023-04-26T21:12:07.216Z,18.45
2023-04-26T21:14:33.666Z,14.38
2023-04-26T21:17:00.281Z,8.60
2023-04-26T21:19:27.213Z,12.77
2023-04-26T21:21:53.641Z,12.32
2023-04-26T21:24:20.147Z,15.52
2023-04-26T21:26:46.587Z,11.82
2023-04-26T21:29:13.008Z,11.23
2023-04-26T21:31:39.596Z,11.33
2023-04-26T21:34:06.058Z,9.73
2023-04-26T21:36:32.509Z,6.60
2023-04-26T21:38:59.812Z,9.05
2023-04-26T21:41:26.236Z,8.35
2023-04-26T21:43:52.644Z,10.07
2023-04-26T21:46:19.556Z,7.60
2023-04-26T21:48:46.008Z,7.75
2023-04-26T21:51:12.426Z,9.55
2023-04-26T21:53:38.922Z,6.95
2023-04-26T21:56:05.628Z,8.10
2023-04-26T21:58:32.047Z,8.05
2023-04-26T22:01:07.187Z,9.30
2023-04-26T22:03:34.099Z,8.80
2023-04-26T22:06:00.563Z,11.80
2023-04-26T22:08:27.014Z,9.30
2023-04-26T22:10:53.411Z,11.10
2023-04-26T22:13:19.846Z,9.85
2023-04-26T22:15:46.336Z,13.13
2023-04-26T22:18:12.746Z,9.35
2023-04-26T22:20:39.156Z,9.53
2023-04-26T22:23:05.763Z,8.75
2023-04-26T22:25:32.253Z,9.20
2023-04-26T22:27:58.715Z,11.00
2023-04-26T22:30:26.209Z,10.98
2023-04-26T22:32:56.675Z,8.23
2023-04-26T22:35:23.568Z,10.85
2023-04-26T22:37:50.184Z,9.82
2023-04-26T22:40:16.759Z,9.35
2023-04-26T22:42:43.521Z,9.82
2023-04-26T22:45:10.589Z,9.80
2023-04-26T22:47:37.047Z,10.95
2023-04-26T22:50:03.887Z,17.48
2023-04-26T22:52:31.840Z,11.73
2023-04-26T22:54:58.643Z,12.15
2023-04-26T22:57:25.238Z,11.60
2023-04-26T22:59:51.729Z,8.50
2023-04-26T23:02:18.224Z,10.35
2023-04-26T23:04:44.701Z,11.15
2023-04-26T23:07:11.191Z,9.13
2023-04-26T23:09:37.735Z,10.27
2023-04-26T23:12:04.376Z,10.05
2023-04-26T23:14:30.958Z,11.23
2023-04-26T23:16:57.628Z,11.10
2023-04-26T23:19:24.333Z,11.70
2023-04-26T23:21:50.973Z,10.97
2023-04-26T23:24:17.430Z,13.77
2023-04-26T23:26:43.862Z,11.20
2023-04-26T23:29:10.437Z,12.93
2023-04-26T23:31:37.125Z,11.32
2023-04-26T23:34:03.625Z,12.40
2023-04-26T23:36:30.104Z,11.80
2023-04-26T23:38:56.519Z,13.50
2023-04-26T23:41:22.948Z,13.48
2023-04-26T23:43:49.431Z,15.98
2023-04-26T23:46:15.876Z,12.77
2023-04-26T23:48:42.424Z,11.68
2023-04-26T23:51:08.991Z,13.80
2023-04-26T23:53:35.442Z,10.68
2023-04-26T23:56:02.014Z,12.23
2023-04-26T23:58:28.516Z,12.33
